createdAt,value
2019-02-21T00:01:34.281Z,8.00
2019-02-21T00:06:40.172Z,8.00
2019-02-21T00:11:46.557Z,8.10
2019-02-21T00:16:53.909Z,8.00
2019-02-21T00:21:59.847Z,8.00
2019-02-21T00:27:06.093Z,8.00
2019-02-21T00:32:12.232Z,8.00
2019-02-21T00:37:18.504Z,8.00
2019-02-21T00:42:24.657Z,8.00
2019-02-21T00:47:30.714Z,8.00
2019-02-21T00:52:36.793Z,8.00
2019-02-21T00:57:42.822Z,8.00
2019-02-21T01:02:48.880Z,8.00
2019-02-21T01:07:54.924Z,8.00
2019-02-21T01:13:00.889Z,7.90
2019-02-21T01:18:07.408Z,7.90
2019-02-21T01:23:14.010Z,7.90
2019-02-21T01:28:20.104Z,7.90
2019-02-21T01:33:27.009Z,7.90
2019-02-21T01:38:33.151Z,7.90
2019-02-21T01:43:39.244Z,7.90
2019-02-21T01:48:45.208Z,7.90
2019-02-21T01:53:51.084Z,8.00
2019-02-21T01:58:58.052Z,8.00
2019-02-21T02:04:04.164Z,7.90
2019-02-21T02:09:12.975Z,7.90
2019-02-21T02:14:19.054Z,7.90
2019-02-21T02:19:25.134Z,7.90
2019-02-21T02:24:31.085Z,7.90
2019-02-21T02:29:38.449Z,8.00
2019-02-21T02:34:44.662Z,7.90
2019-02-21T02:39:50.646Z,7.90
2019-02-21T02:44:56.566Z,7.80
2019-02-21T02:50:02.678Z,7.80
2019-02-21T02:55:10.012Z,7.90
2019-02-21T03:00:16.117Z,7.90
2019-02-21T03:05:23.328Z,7.90
2019-02-21T03:10:29.532Z,7.90
2019-02-21T03:15:35.458Z,7.80
2019-02-21T03:20:41.565Z,7.80
2019-02-21T03:25:48.670Z,7.80
2019-02-21T03:30:54.538Z,7.80
2019-02-21T03:36:00.501Z,7.80
2019-02-21T03:41:06.956Z,7.80
2019-02-21T03:46:13.081Z,7.70
2019-02-21T03:51:19.056Z,7.70
2019-02-21T03:56:25.031Z,7.70
2019-02-21T04:01:30.971Z,7.70
2019-02-21T04:06:37.102Z,7.60
2019-02-21T04:11:43.520Z,7.50
2019-02-21T04:16:49.472Z,7.60
2019-02-21T04:21:55.433Z,7.60
2019-02-21T04:27:01.416Z,7.60
2019-02-21T04:32:16.589Z,7.50
2019-02-21T04:37:15.282Z,7.40
2019-02-21T04:42:21.669Z,7.30
2019-02-21T04:47:27.718Z,7.40
2019-02-21T04:52:33.677Z,7.40
2019-02-21T04:57:39.751Z,7.40
2019-02-21T05:02:46.037Z,7.40
2019-02-21T05:07:52.068Z,7.30
2019-02-21T05:12:58.109Z,7.40
2019-02-21T05:18:05.785Z,7.40
2019-02-21T05:23:12.700Z,7.50
2019-02-21T05:28:26.369Z,7.50
2019-02-21T05:33:50.360Z,7.50
2019-02-21T05:39:12.205Z,7.50
2019-02-21T05:44:28.967Z,7.40
2019-02-21T05:49:42.049Z,7.40
2019-02-21T05:55:01.165Z,7.40
2019-02-21T06:00:41.683Z,7.50
2019-02-21T06:06:04.221Z,7.50
2019-02-21T06:11:34.927Z,7.50
2019-02-21T06:16:57.808Z,7.50
2019-02-21T06:22:23.496Z,7.50
2019-02-21T06:27:51.694Z,7.50
2019-02-21T06:33:05.128Z,7.50
2019-02-21T06:38:05.580Z,7.50
2019-02-21T06:43:11.540Z,7.40
2019-02-21T06:48:17.497Z,7.40
2019-02-21T06:53:23.435Z,7.30
2019-02-21T06:58:29.421Z,7.30
2019-02-21T07:03:35.513Z,7.40
2019-02-21T07:08:41.381Z,7.50
2019-02-21T07:13:49.650Z,7.50
2019-02-21T07:18:55.595Z,7.60
2019-02-21T07:24:02.988Z,7.60
2019-02-21T07:29:09.301Z,7.60
2019-02-21T07:34:15.285Z,7.70
2019-02-21T07:39:21.353Z,7.80
2019-02-21T07:44:27.356Z,7.90
2019-02-21T07:49:33.289Z,7.90
2019-02-21T07:54:39.336Z,7.90
2019-02-21T07:59:45.383Z,8.00
2019-02-21T08:04:51.396Z,8.00
2019-02-21T08:09:57.449Z,8.00
2019-02-21T08:15:03.610Z,8.00
2019-02-21T08:20:10.886Z,8.00
2019-02-21T08:25:19.112Z,8.20
2019-02-21T08:30:24.958Z,8.30
2019-02-21T08:35:31.263Z,8.40
2019-02-21T08:40:37.500Z,8.70
2019-02-21T08:45:43.550Z,9.20
2019-02-21T08:50:49.667Z,9.30
2019-02-21T08:55:57.082Z,9.30
2019-02-21T09:01:03.348Z,9.20
2019-02-21T09:06:10.721Z,9.20
2019-02-21T09:11:19.508Z,9.10
2019-02-21T09:16:24.485Z,9.30
2019-02-21T09:21:30.527Z,9.30
2019-02-21T09:26:37.093Z,9.30
2019-02-21T09:31:43.166Z,9.40
2019-02-21T09:36:49.345Z,9.30
2019-02-21T09:41:55.445Z,9.50
2019-02-21T09:47:01.476Z,9.80
2019-02-21T09:52:07.509Z,10.20
2019-02-21T09:57:13.835Z,10.20
2019-02-21T10:02:20.079Z,10.20
2019-02-21T10:07:26.582Z,10.10
2019-02-21T10:12:32.848Z,10.20
2019-02-21T10:17:38.885Z,10.20
2019-02-21T10:22:45.018Z,10.40
2019-02-21T10:27:51.093Z,10.40
2019-02-21T10:32:57.571Z,10.40
2019-02-21T10:38:03.865Z,10.70
2019-02-21T10:43:12.202Z,10.70
2019-02-21T10:48:18.234Z,11.20
2019-02-21T10:53:24.270Z,11.40
2019-02-21T10:58:30.311Z,11.70
2019-02-21T11:03:36.467Z,11.90
2019-02-21T11:08:43.494Z,11.90
2019-02-21T11:13:49.613Z,11.80
2019-02-21T11:18:56.285Z,11.80
2019-02-21T11:24:02.914Z,11.90
2019-02-21T11:29:09.333Z,11.90
2019-02-21T11:34:15.482Z,12.10
2019-02-21T11:39:22.000Z,12.20
2019-02-21T11:44:28.214Z,12.20
2019-02-21T11:49:34.502Z,12.30
2019-02-21T11:54:41.868Z,12.40
2019-02-21T11:59:47.944Z,12.50
2019-02-21T12:04:53.957Z,12.40
2019-02-21T12:10:00.030Z,12.50
2019-02-21T12:15:07.137Z,12.70
2019-02-21T12:20:13.481Z,12.80
2019-02-21T12:25:19.779Z,12.50
2019-02-21T12:30:25.867Z,12.60
2019-02-21T12:35:32.186Z,12.70
2019-02-21T12:40:38.493Z,12.70
2019-02-21T12:45:44.479Z,12.60
2019-02-21T12:50:50.961Z,12.70
2019-02-21T12:55:57.141Z,12.60
2019-02-21T13:01:03.160Z,12.70
2019-02-21T13:06:09.302Z,12.70
2019-02-21T13:11:15.533Z,12.50
2019-02-21T13:16:21.668Z,12.40
2019-02-21T13:21:27.739Z,12.40
2019-02-21T13:26:33.813Z,12.30
2019-02-21T13:31:39.816Z,12.30
2019-02-21T13:36:45.805Z,12.20
2019-02-21T13:41:52.263Z,12.10
2019-02-21T13:46:58.298Z,12.00
2019-02-21T13:52:04.373Z,12.00
2019-02-21T13:57:11.257Z,11.90
2019-02-21T14:02:17.373Z,11.70
2019-02-21T14:07:23.411Z,11.50
2019-02-21T14:12:29.439Z,11.20
2019-02-21T14:17:35.509Z,11.40
2019-02-21T14:22:41.512Z,11.30
2019-02-21T14:27:47.636Z,11.10
2019-02-21T14:32:54.847Z,11.20
2019-02-21T14:38:02.457Z,11.30
2019-02-21T14:43:08.624Z,11.30
2019-02-21T14:48:14.697Z,11.30
2019-02-21T14:53:20.758Z,11.10
2019-02-21T14:58:27.947Z,11.00
2019-02-21T15:03:33.889Z,10.90
2019-02-21T15:08:40.036Z,10.80
2019-02-21T15:13:46.034Z,10.70
2019-02-21T15:18:52.161Z,10.60
2019-02-21T15:23:58.132Z,10.60
2019-02-21T15:29:04.165Z,10.50
2019-02-21T15:34:12.138Z,10.50
2019-02-21T15:39:18.346Z,10.40
2019-02-21T15:44:24.471Z,10.50
2019-02-21T15:49:30.589Z,10.30
2019-02-21T15:54:36.691Z,10.30
2019-02-21T15:59:43.044Z,10.30
2019-02-21T16:04:48.943Z,10.30
2019-02-21T16:09:55.069Z,10.20
2019-02-21T16:15:01.092Z,10.10
2019-02-21T16:20:09.610Z,10.20
2019-02-21T16:25:17.833Z,10.20
2019-02-21T16:30:23.893Z,10.20
2019-02-21T16:35:29.934Z,10.10
2019-02-21T16:40:36.073Z,10.00
2019-02-21T16:45:46.413Z,10.00
2019-02-21T16:50:49.762Z,10.10
2019-02-21T16:55:55.906Z,10.00
2019-02-21T17:01:02.016Z,10.10
2019-02-21T17:06:08.177Z,10.10
2019-02-21T17:11:16.240Z,10.00
2019-02-21T17:16:22.620Z,10.00
2019-02-21T17:21:28.941Z,10.00
2019-02-21T17:26:35.614Z,10.10
2019-02-21T17:31:41.816Z,10.00
2019-02-21T17:36:47.949Z,9.90
2019-02-21T17:41:54.542Z,9.90
2019-02-21T17:47:00.711Z,10.00
2019-02-21T17:52:06.991Z,9.90
2019-02-21T17:57:13.373Z,9.90
2019-02-21T18:02:19.685Z,10.00
2019-02-21T18:07:35.810Z,9.90
2019-02-21T18:12:33.528Z,10.00
2019-02-21T18:17:39.585Z,10.00
2019-02-21T18:22:47.247Z,9.90
2019-02-21T18:27:53.654Z,9.80
2019-02-21T18:32:59.693Z,9.90
2019-02-21T18:38:05.925Z,9.90
2019-02-21T18:43:11.901Z,9.80
2019-02-21T18:48:17.858Z,9.90
2019-02-21T18:53:23.838Z,9.90
2019-02-21T18:58:29.817Z,9.90
2019-02-21T19:03:37.200Z,9.90
2019-02-21T19:08:43.224Z,10.00
2019-02-21T19:13:49.449Z,10.00
2019-02-21T19:18:55.531Z,10.00
2019-02-21T19:24:01.714Z,10.00
2019-02-21T19:29:12.533Z,10.00
2019-02-21T19:34:21.451Z,10.00
2019-02-21T19:39:27.553Z,9.90
2019-02-21T19:44:35.833Z,10.00
2019-02-21T19:49:41.981Z,10.00
2019-02-21T19:54:48.901Z,9.90
2019-02-21T20:00:02.643Z,9.90
2019-02-21T20:05:10.775Z,9.80
2019-02-21T20:10:16.979Z,9.90
2019-02-21T20:15:23.240Z,9.90
2019-02-21T20:20:29.282Z,9.90
2019-02-21T20:25:35.532Z,9.80
2019-02-21T20:30:41.838Z,9.80
2019-02-21T20:35:47.855Z,9.70
2019-02-21T20:40:55.187Z,9.80
2019-02-21T20:46:01.345Z,9.80
2019-02-21T20:51:07.453Z,9.70
2019-02-21T20:56:15.804Z,9.70
2019-02-21T21:01:21.694Z,9.60
2019-02-21T21:06:27.755Z,9.70
2019-02-21T21:11:33.769Z,9.60
2019-02-21T21:16:39.650Z,9.70
2019-02-21T21:21:45.514Z,9.60
2019-02-21T21:26:51.452Z,9.60
2019-02-21T21:31:57.629Z,9.70
2019-02-21T21:37:05.117Z,9.70
2019-02-21T21:42:11.079Z,9.70
2019-02-21T21:47:17.097Z,9.70
2019-02-21T21:52:22.978Z,9.70
2019-02-21T21:57:29.014Z,9.60
2019-02-21T22:02:35.390Z,9.60
2019-02-21T22:07:41.336Z,9.60
2019-02-21T22:12:47.364Z,9.60
2019-02-21T22:17:53.320Z,9.70
2019-02-21T22:23:02.027Z,9.70
2019-02-21T22:28:07.844Z,9.70
2019-02-21T22:33:13.913Z,9.70
2019-02-21T22:38:19.964Z,9.70
2019-02-21T22:43:26.061Z,9.60
2019-02-21T22:48:34.103Z,9.60
2019-02-21T22:53:40.334Z,9.60
2019-02-21T22:58:46.285Z,9.60
2019-02-21T23:03:58.625Z,9.50
2019-02-21T23:09:07.550Z,9.60
2019-02-21T23:14:13.623Z,9.60
2019-02-21T23:19:24.227Z,9.60
2019-02-21T23:24:31.161Z,9.50
2019-02-21T23:29:37.222Z,9.50
2019-02-21T23:34:44.765Z,9.40
2019-02-21T23:39:50.866Z,9.50
2019-02-21T23:44:56.900Z,9.60
2019-02-21T23:50:02.926Z,9.60
2019-02-21T23:55:08.945Z,9.60
